Startpagina
METAR-TAF:

METAR-TAF

Vliegvelden :

Zagreb, Kroatië

Luchthaven Zagreb

breedte: 45-44N, lengte: 016-04E, hoogte: 106 m

Actueel weer

Dit bericht is 30 minuten geleden gemaakt, om 08:30 UTC
Wind 1 kt uit variabele richting
Temperatuur 16°C
Vochtigheid 68%
Druk 1022 hPa
Zicht 10 km of meer
Weinig wolken op 3300 ft

METAR: LDZA 230830Z VRB01KT 9999 FEW033 16/10 Q1022 NOSIG

Tijdstip: 11:00 (09:00 UTC)

Verwachting

Dit bericht is 3 uur en het 35 minuten geleden gemaakt, om 05:25 UTC
Verwachting geldig van 23 om 06 UTC tot 24 om 06 UTC
Wind 2 kt uit variabele richting
Zicht 10 km of meer
geen wolken onder 1500 m en geen cumulonimbus

TAF: LDZA 230525Z 2306/2406 VRB02KT CAVOK TX21/2313Z TN10/2306Z

Waarnemingen en weersverwachtingen van meer dan 4000 vliegvelden (METAR en TAF).

De beschikbare stations zijn de gele en rode punten op de kaart.

Ga met uw muis naar het station om de naam te zien.

Klik dan om waarnemingen en weersverwachtingen te zien.

kaart wijzigen: klik op de groene knoppen met een zwart kruis om in te zoomen, op de groene knop met een streepje om uit te zoomen of op de groene pijlen voor aangrenzende kaarten.


METAR-TAF: